createdAt,value
2023-02-06T00:00:37.033Z,46.30
2023-02-06T00:01:37.021Z,46.80
2023-02-06T00:02:37.072Z,45.80
2023-02-06T00:03:36.988Z,42.80
2023-02-06T00:04:36.968Z,41.20
2023-02-06T00:05:37.335Z,40.80
2023-02-06T00:06:36.934Z,40.40
2023-02-06T00:07:36.920Z,40.30
2023-02-06T00:08:36.903Z,40.90
2023-02-06T00:09:36.884Z,41.40
2023-02-06T00:10:36.868Z,40.90
2023-02-06T00:11:36.859Z,42.90
2023-02-06T00:12:36.835Z,44.70
2023-02-06T00:13:36.823Z,43.60
2023-02-06T00:14:36.801Z,42.70
2023-02-06T00:15:37.213Z,40.90
2023-02-06T00:16:36.772Z,46.10
2023-02-06T00:17:36.764Z,47.10
2023-02-06T00:18:36.736Z,47.40
2023-02-06T00:19:36.723Z,48.00
2023-02-06T00:20:36.724Z,47.10
2023-02-06T00:21:36.693Z,51.30
2023-02-06T00:22:36.672Z,46.10
2023-02-06T00:23:36.654Z,45.90
2023-02-06T00:24:36.641Z,42.70
2023-02-06T00:25:36.945Z,44.10
2023-02-06T00:26:36.614Z,44.00
2023-02-06T00:27:36.595Z,41.60
2023-02-06T00:28:36.573Z,45.10
2023-02-06T00:29:36.559Z,41.60
2023-02-06T00:30:36.628Z,43.40
2023-02-06T00:31:36.569Z,43.70
2023-02-06T00:32:36.551Z,42.70
2023-02-06T00:33:36.660Z,44.00
2023-02-06T00:34:36.476Z,45.10
2023-02-06T00:35:36.742Z,46.20
2023-02-06T00:36:36.451Z,41.30
2023-02-06T00:37:36.548Z,44.10
2023-02-06T00:38:36.429Z,43.80
2023-02-06T00:39:36.397Z,44.40
2023-02-06T00:40:36.393Z,47.80
2023-02-06T00:41:36.376Z,46.70
2023-02-06T00:42:36.352Z,45.30
2023-02-06T00:43:36.333Z,42.80
2023-02-06T00:44:36.312Z,42.20
2023-02-06T00:45:36.552Z,43.60
2023-02-06T00:46:36.338Z,42.20
2023-02-06T00:47:36.267Z,43.70
2023-02-06T00:48:36.250Z,41.70
2023-02-06T00:49:36.238Z,39.60
2023-02-06T00:50:36.218Z,39.70
2023-02-06T00:51:36.212Z,40.80
2023-02-06T00:52:36.184Z,40.80
2023-02-06T00:53:36.168Z,42.40
2023-02-06T00:54:36.153Z,42.00
2023-02-06T00:55:36.406Z,42.80
2023-02-06T00:56:36.129Z,43.30
2023-02-06T00:57:36.101Z,42.40
2023-02-06T00:58:36.093Z,39.40
2023-02-06T00:59:36.069Z,42.50
2023-02-06T01:00:36.055Z,41.40
2023-02-06T01:01:36.066Z,40.20
2023-02-06T01:02:36.054Z,37.80
2023-02-06T01:03:36.013Z,41.10
2023-02-06T01:04:35.992Z,38.70
2023-02-06T01:05:36.458Z,38.10
2023-02-06T01:06:35.953Z,39.30
2023-02-06T01:07:35.936Z,37.60
2023-02-06T01:08:35.920Z,40.60
2023-02-06T01:09:35.900Z,36.90
2023-02-06T01:10:35.883Z,38.90
2023-02-06T01:11:35.876Z,39.80
2023-02-06T01:12:35.856Z,38.30
2023-02-06T01:13:35.837Z,41.80
2023-02-06T01:14:35.816Z,40.30
2023-02-06T01:15:36.120Z,38.80
2023-02-06T01:16:35.785Z,39.60
2023-02-06T01:17:35.770Z,39.90
2023-02-06T01:18:35.752Z,39.10
2023-02-06T01:19:35.741Z,38.60
2023-02-06T01:20:35.739Z,36.40
2023-02-06T01:21:35.703Z,37.80
2023-02-06T01:22:35.685Z,38.00
2023-02-06T01:23:35.670Z,39.00
2023-02-06T01:24:35.658Z,37.00
2023-02-06T01:25:35.949Z,36.70
2023-02-06T01:26:35.619Z,38.20
2023-02-06T01:27:35.607Z,35.00
2023-02-06T01:28:35.589Z,32.00
2023-02-06T01:29:35.575Z,32.30
2023-02-06T01:30:35.583Z,33.20
2023-02-06T01:31:35.590Z,36.70
2023-02-06T01:32:35.525Z,34.30
2023-02-06T01:33:35.505Z,33.60
2023-02-06T01:34:35.519Z,32.90
2023-02-06T01:35:35.688Z,37.70
2023-02-06T01:36:35.457Z,34.30
2023-02-06T01:37:35.439Z,35.60
2023-02-06T01:38:35.423Z,33.80
2023-02-06T01:39:35.408Z,33.90
2023-02-06T01:40:35.397Z,31.80
2023-02-06T01:41:35.375Z,35.50
2023-02-06T01:42:35.363Z,35.90
2023-02-06T01:43:35.342Z,35.90
2023-02-06T01:44:35.323Z,32.50
2023-02-06T01:45:35.652Z,33.20
2023-02-06T01:46:35.340Z,31.40
2023-02-06T01:47:35.275Z,34.60
2023-02-06T01:48:35.264Z,32.10
2023-02-06T01:49:35.243Z,31.00
2023-02-06T01:50:35.301Z,29.70
2023-02-06T01:51:35.209Z,30.40
2023-02-06T01:52:35.217Z,29.20
2023-02-06T01:53:35.176Z,28.70
2023-02-06T01:54:35.159Z,29.30
2023-02-06T01:55:35.451Z,30.20
2023-02-06T01:56:35.136Z,29.20
2023-02-06T01:57:35.130Z,28.60
2023-02-06T01:58:35.099Z,29.40
2023-02-06T01:59:35.080Z,28.30
2023-02-06T02:00:35.103Z,28.50
2023-02-06T02:01:35.053Z,27.20
2023-02-06T02:02:35.036Z,29.00
2023-02-06T02:03:35.016Z,24.50
2023-02-06T02:04:34.999Z,25.70
2023-02-06T02:05:35.329Z,25.90
2023-02-06T02:06:34.971Z,30.50
2023-02-06T02:07:34.944Z,25.50
2023-02-06T02:08:34.945Z,25.50
2023-02-06T02:09:34.926Z,23.60
2023-02-06T02:10:34.905Z,21.50
2023-02-06T02:11:34.894Z,20.80
2023-02-06T02:12:34.891Z,21.20
2023-02-06T02:13:34.848Z,22.20
2023-02-06T02:14:34.840Z,22.00
2023-02-06T02:15:35.111Z,21.80
2023-02-06T02:16:34.830Z,22.90
2023-02-06T02:17:34.789Z,21.20
2023-02-06T02:18:34.775Z,22.30
2023-02-06T02:19:34.755Z,21.40
2023-02-06T02:20:34.741Z,20.10
2023-02-06T02:21:34.734Z,23.50
2023-02-06T02:22:34.717Z,21.40
2023-02-06T02:23:34.697Z,20.80
2023-02-06T02:24:34.687Z,18.60
2023-02-06T02:25:35.128Z,20.00
2023-02-06T02:26:34.645Z,22.70
2023-02-06T02:27:34.641Z,20.40
2023-02-06T02:28:34.614Z,18.80
2023-02-06T02:29:34.614Z,17.00
2023-02-06T02:30:34.641Z,18.30
2023-02-06T02:31:34.590Z,19.80
2023-02-06T02:32:34.547Z,20.90
2023-02-06T02:33:34.531Z,19.70
2023-02-06T02:34:34.518Z,18.10
2023-02-06T02:35:34.879Z,19.60
2023-02-06T02:36:34.487Z,18.90
2023-02-06T02:37:34.473Z,18.20
2023-02-06T02:38:34.453Z,19.50
2023-02-06T02:39:34.444Z,18.30
2023-02-06T02:40:34.417Z,19.10
2023-02-06T02:41:34.407Z,18.70
2023-02-06T02:42:34.388Z,18.30
2023-02-06T02:43:34.371Z,16.20
2023-02-06T02:44:34.354Z,19.80
2023-02-06T02:45:34.726Z,19.50
2023-02-06T02:46:34.324Z,18.70
2023-02-06T02:47:34.308Z,16.70
2023-02-06T02:48:34.288Z,17.40
2023-02-06T02:49:34.272Z,16.70
2023-02-06T02:50:34.264Z,17.60
2023-02-06T02:51:34.261Z,17.30
2023-02-06T02:52:34.223Z,19.20
2023-02-06T02:53:34.215Z,18.10
2023-02-06T02:54:34.196Z,17.70
2023-02-06T02:55:34.435Z,17.20
2023-02-06T02:56:34.216Z,19.60
2023-02-06T02:57:34.147Z,17.30
2023-02-06T02:58:34.141Z,15.90
2023-02-06T02:59:34.110Z,15.80
2023-02-06T03:00:34.092Z,19.90
2023-02-06T03:01:34.086Z,19.00
2023-02-06T03:02:34.096Z,18.00
2023-02-06T03:03:34.048Z,17.60
2023-02-06T03:04:34.028Z,19.60
2023-02-06T03:05:34.248Z,17.70
2023-02-06T03:06:33.999Z,17.30
2023-02-06T03:07:33.990Z,15.70
2023-02-06T03:08:33.969Z,17.70
2023-02-06T03:09:33.951Z,15.10
2023-02-06T03:10:33.939Z,19.10
2023-02-06T03:11:33.917Z,15.50
2023-02-06T03:12:33.940Z,16.80
2023-02-06T03:13:33.894Z,16.70
2023-02-06T03:14:33.895Z,15.80
2023-02-06T03:15:34.232Z,16.60
2023-02-06T03:16:33.898Z,16.10
2023-02-06T03:17:33.822Z,15.70
2023-02-06T03:18:33.814Z,17.80
2023-02-06T03:19:33.790Z,16.50
2023-02-06T03:20:33.776Z,17.10
2023-02-06T03:21:33.762Z,16.70
2023-02-06T03:22:33.745Z,14.40
2023-02-06T03:23:33.733Z,14.80
2023-02-06T03:24:33.728Z,14.20
2023-02-06T03:25:33.960Z,15.70
2023-02-06T03:26:33.692Z,14.10
2023-02-06T03:27:33.673Z,16.30
2023-02-06T03:28:33.667Z,16.10
2023-02-06T03:29:33.656Z,14.70
2023-02-06T03:30:33.659Z,15.80
2023-02-06T03:31:33.622Z,15.60
2023-02-06T03:32:33.590Z,15.80
2023-02-06T03:33:33.576Z,16.20
2023-02-06T03:34:33.559Z,18.10
2023-02-06T03:35:33.643Z,14.90
2023-02-06T03:36:33.537Z,15.10
2023-02-06T03:37:33.523Z,14.70
2023-02-06T03:38:33.496Z,16.00
2023-02-06T03:39:33.483Z,13.40
2023-02-06T03:40:33.469Z,13.90
2023-02-06T03:41:33.450Z,15.50
2023-02-06T03:42:33.439Z,13.50
2023-02-06T03:43:33.426Z,15.80
2023-02-06T03:44:33.525Z,15.00
2023-02-06T03:45:33.461Z,14.10
2023-02-06T03:46:33.377Z,14.90
2023-02-06T03:47:33.363Z,12.00
2023-02-06T03:48:33.343Z,14.50
2023-02-06T03:49:33.335Z,14.10
2023-02-06T03:50:33.317Z,13.60
2023-02-06T03:51:33.299Z,14.50
2023-02-06T03:52:33.281Z,14.00
2023-02-06T03:53:33.269Z,12.50
2023-02-06T03:54:33.254Z,13.40
2023-02-06T03:55:33.256Z,11.70
2023-02-06T03:56:33.227Z,11.70
2023-02-06T03:57:33.203Z,14.50
2023-02-06T03:58:33.190Z,13.10
2023-02-06T03:59:33.189Z,13.80
2023-02-06T04:00:33.164Z,11.90
2023-02-06T04:01:33.208Z,11.40
2023-02-06T04:02:33.176Z,11.40
2023-02-06T04:03:33.122Z,11.40
2023-02-06T04:04:33.100Z,10.70
2023-02-06T04:05:33.269Z,11.70
2023-02-06T04:06:33.078Z,10.90
2023-02-06T04:07:33.054Z,12.60
2023-02-06T04:08:33.036Z,11.90
2023-02-06T04:09:33.025Z,12.80
2023-02-06T04:10:33.009Z,11.50
2023-02-06T04:11:32.999Z,12.50
2023-02-06T04:12:32.979Z,10.90
2023-02-06T04:13:32.967Z,14.10
2023-02-06T04:14:32.946Z,12.60
2023-02-06T04:15:32.935Z,13.40
2023-02-06T04:16:32.934Z,18.90
2023-02-06T04:17:49.666Z,24.10
2023-02-06T04:18:32.888Z,26.40
2023-02-06T04:19:32.873Z,29.80
2023-02-06T04:20:32.860Z,29.10
2023-02-06T04:21:32.844Z,28.00
2023-02-06T04:22:32.831Z,27.30
2023-02-06T04:23:32.818Z,24.60
2023-02-06T04:24:32.799Z,22.70
2023-02-06T04:25:32.780Z,22.50
2023-02-06T04:26:32.764Z,18.90
2023-02-06T04:27:32.754Z,21.10
2023-02-06T04:28:32.735Z,20.40
2023-02-06T04:29:32.722Z,19.40
2023-02-06T04:30:32.760Z,20.20
2023-02-06T04:31:32.701Z,18.90
2023-02-06T04:32:32.677Z,19.90
2023-02-06T04:33:32.658Z,20.30
2023-02-06T04:34:32.651Z,14.90
2023-02-06T04:35:32.636Z,14.20
2023-02-06T04:36:33.589Z,14.60
2023-02-06T04:37:32.613Z,13.50
2023-02-06T04:38:32.580Z,15.20
2023-02-06T04:39:32.565Z,13.80
2023-02-06T04:40:32.559Z,13.50
2023-02-06T04:41:32.542Z,12.60
2023-02-06T04:42:32.523Z,12.50
2023-02-06T04:43:32.515Z,12.20
2023-02-06T04:44:32.489Z,10.50
2023-02-06T04:45:32.473Z,11.10
2023-02-06T04:46:32.461Z,12.30
2023-02-06T04:47:32.456Z,12.00
2023-02-06T04:48:32.454Z,10.90
2023-02-06T04:49:32.421Z,12.10
2023-02-06T04:50:32.401Z,12.60
2023-02-06T04:51:32.388Z,10.90
2023-02-06T04:52:32.378Z,14.30
2023-02-06T04:53:32.354Z,12.10
2023-02-06T04:54:32.830Z,13.70
2023-02-06T04:55:32.332Z,15.30
2023-02-06T04:56:32.309Z,16.40
2023-02-06T04:57:32.291Z,15.50
2023-02-06T04:58:32.292Z,12.40
2023-02-06T04:59:32.265Z,12.50
2023-02-06T05:00:32.248Z,13.40
2023-02-06T05:01:32.292Z,14.20
2023-02-06T05:02:32.243Z,12.80
2023-02-06T05:03:32.202Z,12.10
2023-02-06T05:04:32.189Z,14.20
2023-02-06T05:05:32.175Z,13.70
2023-02-06T05:06:32.156Z,15.50
2023-02-06T05:07:32.138Z,14.10
2023-02-06T05:08:32.129Z,14.40
2023-02-06T05:09:32.116Z,14.40
2023-02-06T05:10:32.091Z,14.60
2023-02-06T05:11:32.089Z,13.80
2023-02-06T05:12:32.066Z,15.70
2023-02-06T05:13:32.044Z,15.80
2023-02-06T05:14:32.032Z,15.70
2023-02-06T05:15:32.015Z,17.00
2023-02-06T05:16:31.996Z,15.70
2023-02-06T05:17:31.987Z,17.60
2023-02-06T05:18:31.966Z,16.00
2023-02-06T05:19:31.954Z,15.50
2023-02-06T05:20:31.945Z,16.00
2023-02-06T05:21:31.952Z,16.20
2023-02-06T05:22:31.907Z,14.70
2023-02-06T05:23:31.893Z,16.80
2023-02-06T05:24:31.879Z,19.70
2023-02-06T05:25:31.876Z,22.20
2023-02-06T05:26:31.844Z,18.90
2023-02-06T05:27:31.832Z,17.50
2023-02-06T05:28:31.812Z,18.30
2023-02-06T05:29:31.801Z,19.80
2023-02-06T05:30:31.784Z,18.00
2023-02-06T05:31:31.849Z,17.60
2023-02-06T05:32:31.757Z,17.60
2023-02-06T05:33:31.740Z,19.00
2023-02-06T05:34:31.728Z,19.20
2023-02-06T05:35:31.718Z,18.90
2023-02-06T05:36:31.694Z,18.90
2023-02-06T05:37:31.690Z,19.20
2023-02-06T05:38:31.668Z,19.80
2023-02-06T05:39:31.650Z,20.30
2023-02-06T05:40:31.632Z,18.00
2023-02-06T05:41:31.691Z,19.40
2023-02-06T05:42:31.633Z,21.50
2023-02-06T05:43:31.596Z,23.00
2023-02-06T05:44:31.574Z,22.50
2023-02-06T05:45:31.563Z,21.00
2023-02-06T05:46:31.606Z,20.20
2023-02-06T05:47:31.528Z,23.60
2023-02-06T05:48:31.516Z,20.10
2023-02-06T05:49:31.497Z,21.20
2023-02-06T05:50:31.483Z,20.30
2023-02-06T05:51:31.468Z,22.40
2023-02-06T05:52:31.454Z,23.40
2023-02-06T05:53:31.435Z,24.10
2023-02-06T05:54:31.424Z,24.00
2023-02-06T05:55:31.411Z,19.60
2023-02-06T05:56:31.399Z,22.50
2023-02-06T05:57:31.384Z,23.40
2023-02-06T05:58:31.366Z,22.70
2023-02-06T05:59:31.348Z,25.70
2023-02-06T06:00:31.335Z,24.60
2023-02-06T06:01:31.326Z,25.20
2023-02-06T06:02:31.305Z,25.60
2023-02-06T06:03:33.326Z,24.30
2023-02-06T06:04:31.320Z,25.50
2023-02-06T06:05:31.265Z,25.40
2023-02-06T06:06:31.249Z,24.00
2023-02-06T06:07:31.233Z,26.00
2023-02-06T06:08:31.219Z,25.80
2023-02-06T06:09:31.206Z,28.00
2023-02-06T06:10:31.197Z,26.80
2023-02-06T06:11:31.235Z,26.30
2023-02-06T06:12:31.163Z,26.70
2023-02-06T06:13:31.149Z,27.80
2023-02-06T06:14:31.128Z,26.50
2023-02-06T06:15:31.114Z,27.00
2023-02-06T06:16:31.104Z,27.30
2023-02-06T06:17:31.091Z,27.20
2023-02-06T06:18:31.081Z,26.70
2023-02-06T06:19:31.058Z,30.50
2023-02-06T06:20:31.053Z,28.20
2023-02-06T06:21:31.033Z,28.10
2023-02-06T06:22:31.012Z,29.40
2023-02-06T06:23:30.999Z,29.60
2023-02-06T06:24:31.023Z,30.90
2023-02-06T06:25:30.976Z,29.70
2023-02-06T06:26:30.951Z,29.80
2023-02-06T06:27:30.941Z,31.20
2023-02-06T06:28:30.932Z,30.10
2023-02-06T06:29:30.905Z,32.10
2023-02-06T06:30:30.959Z,29.40
2023-02-06T06:31:30.911Z,28.10
2023-02-06T06:32:30.862Z,29.80
2023-02-06T06:33:30.899Z,31.70
2023-02-06T06:34:30.830Z,36.00
2023-02-06T06:35:30.816Z,36.50
2023-02-06T06:36:30.796Z,37.50
2023-02-06T06:37:30.787Z,38.40
2023-02-06T06:38:30.766Z,41.80
2023-02-06T06:39:30.752Z,37.00
2023-02-06T06:40:30.734Z,38.40
2023-02-06T06:41:30.720Z,35.70
2023-02-06T06:42:30.707Z,40.10
2023-02-06T06:43:30.691Z,42.50
2023-02-06T06:44:30.683Z,38.10
2023-02-06T06:45:30.769Z,39.00
2023-02-06T06:46:30.647Z,38.90
2023-02-06T06:47:30.642Z,39.70
2023-02-06T06:48:30.618Z,37.80
2023-02-06T06:49:30.607Z,39.30
2023-02-06T06:50:30.586Z,41.00
2023-02-06T06:51:30.572Z,40.40
2023-02-06T06:52:30.559Z,38.90
2023-02-06T06:53:30.548Z,38.60
2023-02-06T06:54:30.526Z,36.90
2023-02-06T06:55:30.514Z,39.90
2023-02-06T06:56:30.503Z,37.90
2023-02-06T06:57:30.485Z,40.70
2023-02-06T06:58:30.467Z,39.80
2023-02-06T06:59:30.456Z,39.00
2023-02-06T07:00:30.565Z,39.10
2023-02-06T07:01:30.427Z,42.10
2023-02-06T07:02:30.409Z,39.10
2023-02-06T07:03:30.397Z,38.10
2023-02-06T07:04:30.376Z,40.20
2023-02-06T07:05:30.367Z,41.80
2023-02-06T07:06:30.349Z,38.50
2023-02-06T07:07:30.390Z,39.90
2023-02-06T07:08:30.335Z,39.40
2023-02-06T07:09:30.302Z,37.80
2023-02-06T07:10:30.290Z,37.20
2023-02-06T07:11:30.275Z,39.90
2023-02-06T07:12:30.255Z,34.50
2023-02-06T07:13:30.244Z,36.60
2023-02-06T07:14:30.230Z,38.60
2023-02-06T07:15:30.237Z,36.00
2023-02-06T07:16:30.213Z,35.60
2023-02-06T07:17:30.193Z,37.90
2023-02-06T07:18:30.170Z,35.90
2023-02-06T07:19:30.178Z,36.40
2023-02-06T07:20:30.142Z,40.30
2023-02-06T07:21:30.136Z,37.70
2023-02-06T07:22:30.114Z,37.10
2023-02-06T07:23:30.103Z,36.20
2023-02-06T07:24:30.084Z,37.90
2023-02-06T07:25:30.130Z,38.60
2023-02-06T07:26:30.063Z,42.10
2023-02-06T07:27:30.056Z,38.90
2023-02-06T07:28:30.020Z,41.80
2023-02-06T07:29:30.005Z,40.30
2023-02-06T07:30:30.806Z,43.10
2023-02-06T07:31:30.045Z,42.40
2023-02-06T07:32:29.963Z,42.50
2023-02-06T07:33:29.968Z,40.40
2023-02-06T07:34:29.938Z,37.90
2023-02-06T07:35:29.954Z,39.30
2023-02-06T07:36:29.904Z,38.40
2023-02-06T07:37:29.896Z,37.30
2023-02-06T07:38:29.880Z,36.20
2023-02-06T07:39:29.861Z,38.00
2023-02-06T07:40:44.116Z,35.60
2023-02-06T07:41:29.840Z,35.40
2023-02-06T07:42:29.817Z,37.10
2023-02-06T07:43:29.802Z,33.70
2023-02-06T07:44:29.788Z,39.20
2023-02-06T07:45:29.768Z,35.20
2023-02-06T07:46:29.767Z,35.30
2023-02-06T07:47:29.751Z,35.50
2023-02-06T07:48:29.752Z,35.50
2023-02-06T07:49:29.725Z,41.00
2023-02-06T07:50:29.705Z,32.20
2023-02-06T07:51:29.687Z,33.90
2023-02-06T07:52:29.673Z,34.40
2023-02-06T07:53:29.657Z,34.80
2023-02-06T07:54:29.650Z,42.00
2023-02-06T07:55:29.627Z,40.30
2023-02-06T07:56:29.610Z,36.70
2023-02-06T07:57:29.596Z,35.90
2023-02-06T07:58:29.629Z,32.90
2023-02-06T07:59:29.573Z,33.50
2023-02-06T08:00:29.560Z,33.40
2023-02-06T08:01:29.628Z,32.70
2023-02-06T08:02:29.540Z,35.00
2023-02-06T08:03:29.511Z,34.70
2023-02-06T08:04:29.607Z,34.00
2023-02-06T08:05:29.483Z,36.90
2023-02-06T08:06:29.481Z,38.90
2023-02-06T08:07:29.464Z,35.30
2023-02-06T08:08:29.500Z,36.20
2023-02-06T08:09:29.554Z,34.80
2023-02-06T08:10:29.479Z,37.30
2023-02-06T08:11:29.394Z,35.30
2023-02-06T08:12:29.386Z,35.30
2023-02-06T08:13:29.370Z,31.90
2023-02-06T08:14:29.366Z,32.40
2023-02-06T08:15:29.443Z,34.00
2023-02-06T08:16:29.595Z,31.50
2023-02-06T08:17:29.342Z,31.50
2023-02-06T08:18:29.288Z,32.90
2023-02-06T08:19:29.293Z,34.80
2023-02-06T08:20:29.270Z,34.20
2023-02-06T08:21:29.264Z,32.40
2023-02-06T08:22:29.271Z,31.10
2023-02-06T08:23:29.245Z,32.80
2023-02-06T08:24:29.265Z,31.20
2023-02-06T08:25:29.188Z,34.80
2023-02-06T08:26:29.172Z,37.70
2023-02-06T08:27:29.161Z,32.00
2023-02-06T08:28:29.144Z,34.10
2023-02-06T08:29:29.138Z,35.50
2023-02-06T08:30:29.280Z,39.00
2023-02-06T08:31:29.255Z,40.20
2023-02-06T08:32:29.087Z,38.20
2023-02-06T08:33:29.075Z,43.40
2023-02-06T08:34:29.055Z,36.40
2023-02-06T08:35:29.044Z,39.50
2023-02-06T08:36:29.026Z,45.60
2023-02-06T08:37:29.033Z,46.70
2023-02-06T08:38:28.998Z,44.40
2023-02-06T08:39:28.999Z,45.30
2023-02-06T08:40:28.979Z,40.90
2023-02-06T08:41:28.958Z,41.70
2023-02-06T08:42:28.937Z,41.70
2023-02-06T08:43:28.929Z,40.80
2023-02-06T08:44:28.947Z,40.30
2023-02-06T08:45:28.915Z,42.50
2023-02-06T08:46:28.931Z,51.80
2023-02-06T08:47:28.874Z,44.30
2023-02-06T08:48:28.871Z,51.10
2023-02-06T08:49:28.840Z,44.70
2023-02-06T08:50:28.902Z,46.30
2023-02-06T08:51:28.814Z,45.30
2023-02-06T08:52:28.796Z,44.20
2023-02-06T08:53:28.779Z,53.70
2023-02-06T08:54:28.778Z,50.10
2023-02-06T08:55:28.859Z,50.30
2023-02-06T08:56:28.736Z,54.70
2023-02-06T08:57:28.718Z,59.70
2023-02-06T08:58:28.708Z,64.90
2023-02-06T08:59:28.691Z,57.60
2023-02-06T09:00:28.715Z,64.60
2023-02-06T09:01:28.705Z,54.10
2023-02-06T09:02:28.688Z,58.70
2023-02-06T09:03:28.665Z,62.90
2023-02-06T09:04:28.667Z,62.60
2023-02-06T09:05:28.605Z,57.10
2023-02-06T09:06:28.587Z,56.50
2023-02-06T09:07:28.574Z,68.20
2023-02-06T09:08:28.560Z,73.60
2023-02-06T09:09:28.550Z,56.30
2023-02-06T09:10:28.570Z,51.30
2023-02-06T09:11:28.512Z,56.70
2023-02-06T09:12:28.509Z,60.90
2023-02-06T09:13:28.485Z,52.00
2023-02-06T09:14:28.470Z,53.50
2023-02-06T09:15:28.456Z,56.20
2023-02-06T09:16:28.446Z,59.20
2023-02-06T09:17:28.429Z,70.40
2023-02-06T09:18:28.422Z,71.00
2023-02-06T09:19:28.403Z,78.30
2023-02-06T09:20:28.382Z,66.80
2023-02-06T09:21:28.364Z,65.30
2023-02-06T09:22:28.351Z,91.90
2023-02-06T09:23:28.336Z,72.90
2023-02-06T09:24:28.324Z,85.00
2023-02-06T09:25:28.303Z,68.00
2023-02-06T09:26:28.294Z,86.10
2023-02-06T09:27:28.274Z,87.90
2023-02-06T09:28:28.263Z,83.00
2023-02-06T09:29:28.243Z,84.80
2023-02-06T09:30:28.246Z,97.10
2023-02-06T09:31:28.230Z,85.90
2023-02-06T09:32:28.200Z,89.30
2023-02-06T09:33:28.182Z,97.30
2023-02-06T09:34:28.309Z,86.60
2023-02-06T09:35:28.150Z,89.90
2023-02-06T09:36:28.322Z,88.80
2023-02-06T09:37:28.125Z,84.60
2023-02-06T09:38:28.107Z,74.80
2023-02-06T09:39:28.095Z,76.90
2023-02-06T09:40:28.100Z,91.10
2023-02-06T09:41:28.059Z,103.50
2023-02-06T09:42:28.045Z,73.60
2023-02-06T09:43:28.033Z,97.70
2023-02-06T09:44:28.024Z,88.20
2023-02-06T09:45:28.001Z,74.90
2023-02-06T09:46:28.057Z,122.20
2023-02-06T09:47:27.995Z,86.50
2023-02-06T09:48:27.956Z,82.60
2023-02-06T09:49:27.942Z,93.00
2023-02-06T09:50:27.930Z,88.00
2023-02-06T09:51:27.912Z,100.50
2023-02-06T09:52:27.904Z,94.00
2023-02-06T09:53:29.412Z,86.30
2023-02-06T09:54:27.867Z,87.90
2023-02-06T09:55:27.857Z,94.70
2023-02-06T09:56:27.845Z,95.20
2023-02-06T09:57:27.824Z,105.10
2023-02-06T09:58:27.810Z,89.20
2023-02-06T09:59:27.807Z,94.00
2023-02-06T10:00:27.786Z,105.90
2023-02-06T10:01:27.824Z,116.30
2023-02-06T10:02:27.752Z,120.00
2023-02-06T10:03:27.737Z,109.90
2023-02-06T10:04:27.795Z,99.70
2023-02-06T10:05:27.719Z,96.30
2023-02-06T10:06:27.695Z,92.30
2023-02-06T10:07:27.682Z,95.00
2023-02-06T10:08:27.828Z,86.40
2023-02-06T10:09:27.648Z,92.50
2023-02-06T10:10:27.634Z,97.00
2023-02-06T10:11:27.629Z,91.30
2023-02-06T10:12:27.601Z,94.60
2023-02-06T10:13:27.595Z,88.60
2023-02-06T10:14:28.240Z,87.60
2023-02-06T10:15:27.556Z,87.60
2023-02-06T10:16:27.585Z,87.50
2023-02-06T10:17:27.526Z,80.60
2023-02-06T10:18:27.512Z,75.90
2023-02-06T10:19:27.498Z,73.10
2023-02-06T10:20:27.488Z,67.80
2023-02-06T10:21:27.470Z,69.20
2023-02-06T10:22:27.454Z,71.30
2023-02-06T10:23:27.437Z,63.90
2023-02-06T10:24:27.421Z,63.20
2023-02-06T10:25:27.405Z,58.60
2023-02-06T10:26:27.395Z,60.60
2023-02-06T10:27:27.381Z,60.10
2023-02-06T10:28:27.394Z,58.60
2023-02-06T10:29:27.354Z,52.70
2023-02-06T10:30:27.338Z,48.80
2023-02-06T10:31:27.382Z,50.20
2023-02-06T10:32:27.305Z,47.10
2023-02-06T10:33:27.289Z,46.60
2023-02-06T10:34:27.279Z,46.30
2023-02-06T10:35:27.270Z,44.50
2023-02-06T10:36:27.251Z,48.30
2023-02-06T10:37:27.239Z,45.60
2023-02-06T10:38:27.228Z,39.80
2023-02-06T10:39:27.212Z,39.10
2023-02-06T10:40:27.190Z,37.10
2023-02-06T10:41:27.268Z,36.00
2023-02-06T10:42:27.159Z,33.80
2023-02-06T10:43:27.147Z,32.20
2023-02-06T10:44:27.140Z,30.40
2023-02-06T10:45:27.118Z,31.30
2023-02-06T10:46:27.121Z,31.70
2023-02-06T10:47:27.091Z,29.90
2023-02-06T10:48:27.075Z,27.80
2023-02-06T10:49:27.059Z,29.10
2023-02-06T10:50:27.045Z,29.90
2023-02-06T10:51:27.035Z,30.00
2023-02-06T10:52:27.019Z,29.70
2023-02-06T10:53:27.006Z,25.50
2023-02-06T10:54:26.987Z,27.20
2023-02-06T10:55:26.974Z,28.50
2023-02-06T10:56:26.970Z,26.50
2023-02-06T10:57:26.944Z,21.40
2023-02-06T10:58:26.936Z,24.60
2023-02-06T10:59:26.920Z,24.60
2023-02-06T11:00:27.052Z,24.50
2023-02-06T11:01:27.174Z,25.30
2023-02-06T11:02:26.940Z,22.20
2023-02-06T11:03:26.860Z,24.30
2023-02-06T11:04:26.848Z,25.30
2023-02-06T11:05:26.828Z,26.90
2023-02-06T11:06:26.816Z,26.80
2023-02-06T11:07:26.798Z,25.40
2023-02-06T11:08:26.783Z,25.00
2023-02-06T11:09:26.770Z,24.70
2023-02-06T11:10:26.762Z,26.30
2023-02-06T11:11:26.757Z,27.60
2023-02-06T11:12:26.757Z,27.30
2023-02-06T11:13:26.760Z,25.20
2023-02-06T11:14:26.704Z,24.80
2023-02-06T11:15:26.685Z,24.10
2023-02-06T11:16:26.735Z,23.90
2023-02-06T11:17:26.659Z,24.20
2023-02-06T11:18:26.640Z,22.50
2023-02-06T11:19:26.628Z,23.30
2023-02-06T11:20:26.606Z,22.20
2023-02-06T11:21:26.601Z,22.70
2023-02-06T11:22:26.575Z,24.90
2023-02-06T11:23:26.579Z,21.50
2023-02-06T11:24:26.554Z,23.40
2023-02-06T11:25:26.545Z,23.40
2023-02-06T11:26:26.520Z,23.30
2023-02-06T11:27:26.510Z,21.60
2023-02-06T11:28:26.487Z,20.60
2023-02-06T11:29:26.476Z,23.20
2023-02-06T11:30:26.503Z,22.00
2023-02-06T11:31:26.484Z,22.20
2023-02-06T11:32:26.433Z,22.30
2023-02-06T11:33:26.418Z,24.80
2023-02-06T11:34:26.407Z,21.90
2023-02-06T11:35:26.393Z,20.60
2023-02-06T11:36:26.376Z,22.20
2023-02-06T11:37:26.358Z,20.80
2023-02-06T11:38:26.343Z,23.40
2023-02-06T11:39:26.335Z,23.00
2023-02-06T11:40:26.320Z,22.60
2023-02-06T11:41:26.297Z,23.10
2023-02-06T11:42:26.279Z,26.00
2023-02-06T11:43:26.283Z,25.70
2023-02-06T11:44:26.312Z,26.30
2023-02-06T11:45:26.300Z,26.20
2023-02-06T11:46:26.230Z,24.20
2023-02-06T11:47:26.209Z,25.80
2023-02-06T11:48:26.193Z,26.00
2023-02-06T11:49:26.191Z,25.50
2023-02-06T11:50:26.163Z,25.70
2023-02-06T11:51:26.148Z,24.40
2023-02-06T11:52:26.132Z,26.70
2023-02-06T11:53:26.117Z,23.50
2023-02-06T11:54:26.106Z,26.10
2023-02-06T11:55:26.089Z,23.10
2023-02-06T11:56:26.072Z,27.30
2023-02-06T11:57:26.057Z,30.50
2023-02-06T11:58:26.054Z,25.90
2023-02-06T11:59:26.029Z,29.20
2023-02-06T12:00:26.015Z,27.80
2023-02-06T12:01:25.998Z,29.60
2023-02-06T12:02:26.059Z,26.50
2023-02-06T12:03:26.013Z,27.80
2023-02-06T12:04:25.957Z,28.20
2023-02-06T12:05:25.945Z,29.20
2023-02-06T12:06:25.927Z,29.00
2023-02-06T12:07:25.909Z,27.10
2023-02-06T12:08:25.901Z,27.50
2023-02-06T12:09:25.887Z,32.10
2023-02-06T12:10:25.865Z,31.70
2023-02-06T12:11:25.848Z,29.00
2023-02-06T12:12:25.836Z,29.30
2023-02-06T12:13:25.837Z,30.40
2023-02-06T12:14:25.812Z,31.10
2023-02-06T12:15:46.957Z,31.00
2023-02-06T12:16:25.864Z,31.40
2023-02-06T12:17:25.765Z,32.50
2023-02-06T12:18:25.750Z,32.10
2023-02-06T12:19:25.740Z,32.40
2023-02-06T12:20:26.816Z,32.80
2023-02-06T12:21:25.708Z,32.00
2023-02-06T12:22:25.688Z,30.50
2023-02-06T12:23:25.675Z,33.00
2023-02-06T12:24:25.657Z,31.90
2023-02-06T12:25:25.641Z,33.40
2023-02-06T12:26:25.626Z,32.10
2023-02-06T12:27:25.941Z,33.30
2023-02-06T12:28:25.595Z,32.70
2023-02-06T12:29:25.582Z,33.00
2023-02-06T12:30:25.569Z,31.30
2023-02-06T12:31:25.646Z,32.50
2023-02-06T12:32:25.548Z,35.30
2023-02-06T12:33:25.525Z,35.20
2023-02-06T12:34:25.510Z,36.20
2023-02-06T12:35:25.488Z,38.70
2023-02-06T12:36:25.475Z,36.30
2023-02-06T12:37:25.457Z,38.00
2023-02-06T12:38:25.450Z,37.20
2023-02-06T12:39:25.427Z,37.10
2023-02-06T12:40:25.416Z,38.50
2023-02-06T12:41:25.397Z,35.80
2023-02-06T12:42:25.381Z,38.20
2023-02-06T12:43:25.364Z,40.00
2023-02-06T12:44:25.351Z,42.40
2023-02-06T12:45:25.333Z,37.10
2023-02-06T12:46:25.348Z,36.20
2023-02-06T12:47:25.319Z,37.00
2023-02-06T12:48:25.290Z,40.70
2023-02-06T12:49:25.330Z,39.20
2023-02-06T12:50:25.258Z,41.80
2023-02-06T12:51:25.248Z,36.80
2023-02-06T12:52:25.236Z,37.90